• Join FlightAware (Why Join?)
  • Login
  • US Flag 
05:23PM EDT


 

Airport Tracker/Info


-or-


 

Live Flight TrackerFlight Track Log ✈ FDX1570 ✈ 17-May-2013 ✈ KMEM - KALB

Flight Track Log - Related Links

Times and Time Zones

All times are in EDT time to prevent confusion due to time zone crossing. See the FDX1570 flight status page for this flight to view local times or setup timezone preferences in your user account.

Time Position Orientation Groundspeed Altitude Reporting Facility
EDT Latitude Longitude Course Direction KTS MPH feet Rate Location/Type
04:20AM 35.0167 -89.9667 180° South 169 194 1,200  Level KMEM
04:21AM 34.9667 -89.9667 180° South 219 252 3,900 3,000 Climbing KMEM
04:22AM 34.9167 -89.9000 132° Southeast 293 337 7,200 2,820 Climbing KMEM
04:24AM 34.9767 -89.7617 62° Northeast 333 383 11,200 2,640 Climbing Memphis Center
04:25AM 35.0242 -89.6444 64° Northeast 375 432 14,000 2,760 Climbing Memphis Center
04:26AM 35.0775 -89.5222 62° Northeast 395 455 16,800 2,760 Climbing Memphis Center
04:27AM 35.1369 -89.3819 63° Northeast 403 464 19,600 2,580 Climbing Memphis Center
04:28AM 35.2089 -89.2567 55° Northeast 423 487 22,000 2,040 Climbing Memphis Center
04:29AM 35.2869 -89.1336 52° Northeast 448 516 23,700 1,620 Climbing Memphis Center
04:30AM 35.3669 -89.0025 53° Northeast 471 542 25,300 1,560 Climbing Memphis Center
04:31AM 35.4489 -88.8686 53° Northeast 482 555 26,900 1,440 Climbing Memphis Center
04:32AM 35.5203 -88.7422 55° Northeast 488 562 28,200 1,560 Climbing Memphis Center
04:33AM 35.6039 -88.6028 54° Northeast 493 567 30,100 1,920 Climbing Memphis Center
04:34AM 35.6875 -88.4681 53° Northeast 493 567 32,100 1,800 Climbing Memphis Center
04:35AM 35.7728 -88.3256 54° Northeast 504 580 33,800 1,560 Climbing Memphis Center
04:36AM 35.8539 -88.1878 54° Northeast 504 580 35,300 420 Climbing Memphis Center
04:42AM 36.3570 -87.3340 54° Northeast 505 581 37,000 240 Climbing FlightAware
04:42AM 36.4160 -87.2310 55° Northeast 498 573 37,000  Level FlightAware
04:43AM 36.4700 -87.1390 54° Northeast 493 567 37,000  Level FlightAware
04:44AM 36.5310 -87.0310 55° Northeast 488 562 37,000  Level FlightAware
04:44AM 36.5670 -86.9700 54° Northeast 484 557 37,000  Level FlightAware
04:45AM 36.6291 -86.8613 55° Northeast 479 551 37,000  Level FlightAware ADS-B
04:46AM 36.6687 -86.7918 55° Northeast 477 549 37,000  Level FlightAware ADS-B
04:46AM 36.7163 -86.7067 55° Northeast 475 547 37,000  Level FlightAware ADS-B
04:47AM 36.7575 -86.6356 54° Northeast 474 545 37,000  Level FlightAware ADS-B
04:47AM 36.7960 -86.5664 55° Northeast 473 544 37,000  Level FlightAware ADS-B
04:48AM 36.8344 -86.4996 54° Northeast 474 545 37,000  Level FlightAware ADS-B
04:48AM 36.8796 -86.4189 55° Northeast 474 545 37,000  Level FlightAware ADS-B
04:49AM 36.9246 -86.3385 55° Northeast 474 545 37,000  Level FlightAware ADS-B
04:49AM 36.9632 -86.2691 55° Northeast 473 544 37,000  Level FlightAware ADS-B
04:50AM 37.0011 -86.2017 55° Northeast 473 544 37,000  Level FlightAware ADS-B
04:51AM 37.0510 -86.1120 55° Northeast 473 544 37,000  Level FlightAware
04:52AM 37.1210 -85.9880 55° Northeast 477 549 37,000  Level FlightAware
04:52AM 37.1710 -85.8960 56° Northeast 479 551 37,000  Level FlightAware
04:53AM 37.2330 -85.7840 55° Northeast 481 554 37,000  Level FlightAware
04:54AM 37.2910 -85.6780 55° Northeast 482 555 37,000  Level FlightAware
04:55AM 37.3500 -85.5750 54° Northeast 482 555 37,000  Level FlightAware
04:55AM 37.4000 -85.4830 56° Northeast 482 555 37,000  Level FlightAware
04:56AM 37.4530 -85.3860 55° Northeast 481 554 37,000  Level FlightAware
04:56AM 37.4639 -85.3649 57° Northeast 481 554 37,000  Level FlightAware ADS-B
04:57AM 37.5024 -85.2936 56° Northeast 480 552 37,000  Level FlightAware ADS-B
04:57AM 37.5413 -85.2246 55° Northeast 478 550 37,000  Level FlightAware ADS-B
04:58AM 37.5826 -85.1465 56° Northeast 477 549 37,000  Level FlightAware ADS-B
04:58AM 37.6204 -85.0757 56° Northeast 475 547 37,000  Level FlightAware ADS-B
04:59AM 37.6601 -85.0025 56° Northeast 474 545 37,000  Level FlightAware ADS-B
04:59AM 37.7170 -84.8970 56° Northeast 473 544 37,000  Level FlightAware
05:00AM 37.7650 -84.8080 56° Northeast 471 542 37,000  Level FlightAware
05:01AM 37.8150 -84.7150 56° Northeast 470 541 37,000  Level FlightAware
05:02AM 37.8748 -84.6035 56° Northeast 469 540 37,000  Level FlightAware ADS-B
05:02AM 37.9190 -84.5220 55° Northeast 468 539 37,000  Level FlightAware
05:03AM 37.9703 -84.4270 56° Northeast 469 540 37,000  Level FlightAware ADS-B
05:04AM 38.0310 -84.3390 49° Northeast 464 534 37,000  Level FlightAware
05:04AM 38.0970 -84.2460 48° Northeast 463 533 37,000  Level FlightAware
05:05AM 38.1480 -84.1780 46° Northeast 463 533 37,000  Level FlightAware
05:06AM 38.1980 -84.1100 47° Northeast 463 533 37,000  Level FlightAware
05:06AM 38.2700 -84.0090 48° Northeast 459 528 37,000  Level FlightAware
05:07AM 38.3270 -83.9330 46° Northeast 459 528 37,000  Level FlightAware
05:08AM 38.3670 -83.8410 61° Northeast 464 534 37,000  Level FlightAware
05:08AM 38.4160 -83.7480 56° Northeast 464 534 37,000  Level FlightAware
05:09AM 38.4570 -83.6710 56° Northeast 464 534 37,000  Level FlightAware
05:10AM 38.5080 -83.5740 56° Northeast 464 534 37,000  Level FlightAware
05:11AM 38.5490 -83.4970 56° Northeast 464 534 37,000  Level FlightAware
05:11AM 38.5900 -83.4190 56° Northeast 464 534 37,000  Level FlightAware
05:12AM 38.6690 -83.2410 60° Northeast 456 525 37,000  Level FlightAware
05:13AM 38.7060 -83.1680 57° Northeast 456 525 37,000  Level FlightAware
05:13AM 38.7550 -83.0720 57° Northeast 456 525 37,000  Level FlightAware
05:14AM 38.7980 -82.9810 59° Northeast 455 524 37,000  Level FlightAware
05:15AM 38.8610 -82.8530 58° Northeast 457 526 37,000  Level FlightAware
05:16AM 38.9070 -82.7590 58° Northeast 458 527 37,000  Level FlightAware
05:16AM 38.9510 -82.6690 58° Northeast 458 527 37,000  Level FlightAware
05:17AM 39.0020 -82.5660 57° Northeast 460 529 37,000  Level FlightAware
05:18AM 39.0470 -82.4730 58° Northeast 460 529 37,000  Level FlightAware
05:18AM 39.0870 -82.3920 58° Northeast 460 529 37,000  Level FlightAware
05:19AM 39.1310 -82.3010 58° Northeast 461 531 37,000  Level FlightAware
05:20AM 39.1880 -82.1820 58° Northeast 461 531 37,000  Level FlightAware
05:20AM 39.2390 -82.0770 58° Northeast 461 531 37,000  Level FlightAware
05:21AM 39.2830 -81.9830 59° Northeast 461 531 37,000  Level FlightAware
05:22AM 39.3260 -81.8970 57° Northeast 461 531 37,000  Level FlightAware
05:23AM 39.3800 -81.7820 59° Northeast 461 531 37,000  Level FlightAware
05:23AM 39.4180 -81.7020 58° Northeast 461 531 37,000  Level FlightAware
05:24AM 39.4670 -81.5980 59° Northeast 461 531 37,000  Level FlightAware
05:25AM 39.5190 -81.4880 58° Northeast 461 531 37,000  Level FlightAware
05:25AM 39.5630 -81.3960 58° Northeast 460 529 37,000  Level FlightAware
05:26AM 39.6120 -81.2920 59° Northeast 461 531 37,000  Level FlightAware
05:27AM 39.6560 -81.1970 59° Northeast 461 531 37,000  Level FlightAware
05:27AM 39.7070 -81.0880 59° Northeast 462 532 37,000  Level FlightAware
05:28AM 39.7440 -81.0080 59° Northeast 462 532 37,000  Level FlightAware
05:29AM 39.8000 -80.8890 58° Northeast 461 531 37,000  Level FlightAware
05:29AM 39.8400 -80.8010 59° Northeast 460 529 37,000  Level FlightAware
05:30AM 39.8870 -80.6990 59° Northeast 460 529 37,000  Level FlightAware
05:31AM 39.9360 -80.5930 59° Northeast 459 528 37,000  Level FlightAware
05:32AM 39.9820 -80.4950 58° Northeast 459 528 37,000  Level FlightAware
05:32AM 40.0320 -80.3860 59° Northeast 458 527 37,000  Level FlightAware
05:33AM 40.0700 -80.3030 59° Northeast 458 527 37,000  Level FlightAware
05:34AM 40.1170 -80.2010 59° Northeast 458 527 37,000  Level FlightAware
05:34AM 40.1660 -80.0940 59° Northeast 459 528 37,000  Level FlightAware
05:35AM 40.2070 -80.0030 59° Northeast 459 528 37,000  Level FlightAware
05:36AM 40.2590 -79.8860 60° Northeast 459 528 37,000  Level FlightAware
05:36AM 40.2960 -79.8050 59° Northeast 460 529 37,000  Level FlightAware
05:37AM 40.3390 -79.7110 59° Northeast 460 529 37,000  Level FlightAware
05:38AM 40.3820 -79.6150 60° Northeast 459 528 37,000  Level FlightAware
05:39AM 40.4320 -79.5020 60° Northeast 459 528 37,000  Level FlightAware
05:39AM 40.4730 -79.4100 60° Northeast 460 529 37,000  Level FlightAware
05:40AM 40.5210 -79.3010 60° Northeast 461 531 37,000  Level FlightAware
05:41AM 40.5650 -79.2020 60° Northeast 461 531 37,000  Level FlightAware
05:41AM 40.6080 -79.1070 59° Northeast 461 531 37,000  Level FlightAware
05:42AM 40.6550 -78.9980 60° Northeast 460 529 37,000  Level FlightAware
05:43AM 40.6960 -78.9060 60° Northeast 460 529 37,000  Level FlightAware
05:43AM 40.7340 -78.8190 60° Northeast 460 529 37,000  Level FlightAware
05:44AM 40.7840 -78.7050 60° Northeast 459 528 37,000  Level FlightAware
05:45AM 40.8250 -78.6100 60° Northeast 459 528 37,000  Level FlightAware
05:45AM 40.8680 -78.5100 60° Northeast 459 528 37,000  Level FlightAware
05:46AM 40.9160 -78.4000 60° Northeast 460 529 37,000  Level FlightAware
05:47AM 40.9580 -78.3020 60° Northeast 460 529 37,000  Level FlightAware
05:48AM 41.0050 -78.1900 61° Northeast 460 529 37,000  Level FlightAware
05:48AM 41.0470 -78.0940 60° Northeast 461 531 37,000  Level FlightAware
05:49AM 41.0840 -78.0050 61° Northeast 462 532 37,000  Level FlightAware
05:50AM 41.1290 -77.9010 60° Northeast 464 534 37,000 -180 Level FlightAware
05:50AM 41.1608 -77.8243 61° Northeast 464 534 36,800 -1,020 Descending FlightAware ADS-B
05:51AM 41.1930 -77.7473 61° Northeast 465 535 36,100 -1,380 Descending FlightAware ADS-B
05:51AM 41.2190 -77.6870 60° Northeast 471 542 35,400 -1,500 Descending FlightAware
05:52AM 41.2620 -77.5830 61° Northeast 478 550 34,300 -1,500 Descending FlightAware
05:52AM 41.3060 -77.4790 61° Northeast 482 555 33,400 -1,440 Descending FlightAware
05:53AM 41.3550 -77.3620 61° Northeast 488 562 32,300 -1,560 Descending FlightAware
05:54AM 41.3990 -77.2560 61° Northeast 496 571 31,200 -1,620 Descending FlightAware
05:54AM 41.4420 -77.1500 62° Northeast 503 579 30,200 -1,320 Descending FlightAware
05:55AM 41.4910 -77.0330 61° Northeast 501 577 29,400 -900 Descending FlightAware
05:56AM 41.5370 -76.9200 61° Northeast 502 578 29,000 -300 Descending FlightAware
05:57AM 41.5890 -76.7940 61° Northeast 503 579 29,000  Level FlightAware
05:57AM 41.6320 -76.6880 61° Northeast 498 573 29,000 -540 Level FlightAware
05:58AM 41.6760 -76.5780 62° Northeast 496 571 28,300 -960 Descending FlightAware
05:59AM 41.7260 -76.4560 61° Northeast 494 568 27,700 -1,020 Descending FlightAware
05:59AM 41.7576 -76.3781 61° Northeast 494 568 27,200 -900 Descending FlightAware ADS-B
06:00AM 41.8120 -76.2410 62° Northeast 493 567 26,500 -840 Descending FlightAware
06:01AM 41.8600 -76.1200 62° Northeast 493 567 25,800 -960 Descending FlightAware
06:02AM 41.9040 -76.0120 61° Northeast 494 568 25,100 -900 Descending FlightAware
06:02AM 41.9360 -75.9310 62° Northeast 492 566 24,700 -360 Descending FlightAware
06:03AM 41.9780 -75.8250 62° Northeast 492 566 24,700  Level FlightAware
06:04AM 42.0230 -75.7100 62° Northeast 492 566 24,700  Level FlightAware
06:04AM 42.0590 -75.6180 62° Northeast 492 566 24,700 -540 Level FlightAware
06:05AM 42.1280 -75.4400 62° Northeast 490 564 24,000 -1,080 Descending FlightAware
06:06AM 42.1760 -75.3160 62° Northeast 486 559 23,200 -1,140 Descending FlightAware
06:06AM 42.2160 -75.2140 62° Northeast 485 558 22,400 -2,040 Descending FlightAware
06:07AM 42.2570 -75.1100 62° Northeast 474 545 20,500 -1,440 Descending FlightAware
06:08AM 42.2920 -75.0210 62° Northeast 474 545 20,500  Level FlightAware
06:08AM 42.3270 -74.9320 62° Northeast 474 545 20,500  Level FlightAware
06:09AM 42.3710 -74.8200 62° Northeast 474 545 20,500  Level FlightAware
06:10AM 42.4060 -74.7310 62° Northeast 474 545 20,500  Level FlightAware
06:11AM 42.4410 -74.6420 62° Northeast 474 545 20,500 -6,900 Level FlightAware
06:11AM 42.4814 -74.5261 62° Northeast 387 445 11,000 -8,580 Descending Boston Center
06:12AM 42.4969 -74.4675 70° East 393 452 11,100  Climbing Boston Center
06:12AM 42.5275 -74.3953 60° Northeast 343 395 11,000  Descending Boston Center
06:13AM 42.5406 -74.3564 65° Northeast 344 396 11,100 -720 Climbing Boston Center
06:13AM 42.5625 -74.2922 65° Northeast 288 331 10,300 -1,440 Descending Boston Center
06:14AM 42.5672 -74.2528 81° East 308 354 9,700 -2,460 Descending Boston Center
06:14AM 42.5642 -74.1794 93° East 298 343 7,800 -2,820 Descending Boston Center
06:15AM 42.5628 -74.1369 93° East 293 337 6,900 -2,280 Descending Boston Center
06:15AM 42.5617 -74.0694 91° East 290 334 5,500 -2,040 Descending Boston Center
06:16AM 42.5603 -74.0297 93° East 287 330 4,900 -1,200 Descending Boston Center
06:16AM 42.5589 -73.9706 92° East 264 304 4,300 -900 Descending Boston Center
06:17AM 42.5614 -73.9342 85° East 268 308 4,000 -840 Descending Boston Center
06:17AM 42.5789 -73.8836 65° Northeast 228 262 3,500 -900 Descending Boston Center
06:18AM 42.5853 -73.8556 73° East 230 265 3,100 -1,140 Descending Boston Center
06:18AM 42.6047 -73.8167 56° Northeast 175 201 2,400 -840 Descending Boston Center
06:19AM 42.6111 -73.8056 52° Northeast 207 238 2,300 -420 Descending Boston Center
06:19AM 42.6464 -73.8006 North 144 166 2,000 -540 Descending Boston Center
06:20AM 42.6839 -73.8069 353° North 140 161 1,400 -660 Descending Boston Center
06:21AM 42.7172 -73.8050 North 105 121 700 -660 Descending Boston Center